Terminal Aerodrome Forecast
Issued by NWS Greer, SC

Home | Current Version | Previous Version | Text Only | Print | Product List | Glossary On
Versions: 1 2 3 4 5 6 7 8 9 10 11 12 13 14 15 16 17 18 19 20 21 22 23 24 25 26 27 28 29 30 31 32
000
FTUS42 KGSP 052340
TAFAVL
TAF
KAVL 052340Z 0600/0624 35005KT P6SM -RA BKN020 OVC100
     FM060200 36005KT 3SM RA BR OVC015
      TEMPO 0602/0604 2SM +RA BR OVC008
     FM060400 08004KT 3SM RA BR OVC008
     FM061200 12008KT 4SM -RA BR OVC003
     FM061800 15005KT P6SM BKN008
     FM062300 31006KT P6SM SCT008 SCT025=

USA.gov is the U.S. government's official web portal to all federal, state and local government web resources and services.